createdAt,value
2019-05-29T00:02:14.181Z,50.80
2019-05-29T00:07:18.485Z,50.03
2019-05-29T00:12:22.265Z,50.80
2019-05-29T00:17:25.838Z,49.47
2019-05-29T00:22:29.772Z,49.00
2019-05-29T00:27:33.489Z,49.90
2019-05-29T00:32:37.324Z,49.73
2019-05-29T00:37:41.210Z,49.67
2019-05-29T00:42:44.814Z,49.20
2019-05-29T00:47:48.355Z,49.70
2019-05-29T00:52:51.926Z,50.20
2019-05-29T00:57:55.711Z,50.43
2019-05-29T01:02:59.312Z,50.30
2019-05-29T01:08:02.986Z,50.17
2019-05-29T01:13:06.624Z,49.07
2019-05-29T01:18:11.622Z,49.57
2019-05-29T01:23:16.245Z,49.37
2019-05-29T01:28:21.016Z,49.87
2019-05-29T01:33:25.097Z,49.33
2019-05-29T01:38:28.736Z,49.00
2019-05-29T01:43:32.354Z,49.00
2019-05-29T01:48:35.974Z,48.77
2019-05-29T01:53:39.681Z,48.93
2019-05-29T01:58:43.170Z,48.37
2019-05-29T02:03:47.170Z,47.93
2019-05-29T02:08:50.806Z,48.40
2019-05-29T02:13:54.604Z,47.50
2019-05-29T02:18:58.169Z,48.83
2019-05-29T02:24:01.805Z,48.97
2019-05-29T02:29:05.427Z,48.53
2019-05-29T02:34:09.222Z,48.20
2019-05-29T02:39:12.974Z,49.63
2019-05-29T02:44:16.678Z,49.10
2019-05-29T02:49:21.482Z,48.80
2019-05-29T02:54:27.016Z,50.00
2019-05-29T02:59:32.100Z,50.97
2019-05-29T03:04:36.290Z,48.53
2019-05-29T03:09:40.421Z,48.60
2019-05-29T03:14:44.081Z,49.30
2019-05-29T03:19:47.753Z,47.43
2019-05-29T03:24:51.390Z,46.97
2019-05-29T03:29:54.966Z,46.03
2019-05-29T03:34:58.554Z,45.63
2019-05-29T03:40:02.151Z,45.00
2019-05-29T03:45:06.906Z,44.87
2019-05-29T03:50:15.459Z,44.17
2019-05-29T03:55:16.103Z,44.57
2019-05-29T04:00:20.239Z,44.07
2019-05-29T04:05:23.947Z,44.10
2019-05-29T04:10:32.929Z,43.43
2019-05-29T04:15:38.656Z,43.50
2019-05-29T04:20:44.347Z,44.18
2019-05-29T04:25:51.015Z,44.43
2019-05-29T04:30:54.558Z,44.08
2019-05-29T04:35:58.226Z,44.57
2019-05-29T04:41:02.162Z,44.10
2019-05-29T04:46:05.741Z,43.70
2019-05-29T04:51:09.408Z,43.63
2019-05-29T04:56:13.051Z,43.17
2019-05-29T05:01:16.720Z,43.50
2019-05-29T05:06:20.320Z,43.43
2019-05-29T05:11:23.927Z,43.13
2019-05-29T05:16:27.502Z,42.63
2019-05-29T05:21:31.948Z,42.47
2019-05-29T05:26:36.297Z,43.13
2019-05-29T05:31:40.798Z,45.73
2019-05-29T05:36:44.540Z,48.67
2019-05-29T05:41:48.128Z,53.07
2019-05-29T05:46:51.835Z,43.17
2019-05-29T05:51:55.532Z,44.50
2019-05-29T05:56:59.116Z,43.37
2019-05-29T06:02:03.094Z,42.57
2019-05-29T06:07:06.714Z,42.93
2019-05-29T06:12:10.309Z,43.03
2019-05-29T06:17:14.218Z,42.97
2019-05-29T06:22:17.844Z,44.40
2019-05-29T06:27:21.549Z,43.70
2019-05-29T06:32:25.109Z,48.20
2019-05-29T06:37:28.704Z,43.60
2019-05-29T06:42:33.517Z,47.77
2019-05-29T06:47:38.583Z,47.23
2019-05-29T06:52:43.510Z,44.13
2019-05-29T06:57:48.327Z,43.50
2019-05-29T07:02:52.126Z,43.33
2019-05-29T07:07:55.795Z,43.73
2019-05-29T07:12:59.342Z,44.30
2019-05-29T07:18:03.558Z,43.80
2019-05-29T07:23:07.225Z,44.97
2019-05-29T07:28:10.952Z,44.50
2019-05-29T07:33:14.558Z,44.73
2019-05-29T07:38:19.213Z,45.07
2019-05-29T07:43:23.060Z,45.33
2019-05-29T07:48:26.826Z,44.90
2019-05-29T07:53:33.619Z,45.30
2019-05-29T07:58:35.871Z,45.27
2019-05-29T08:03:41.093Z,45.17
2019-05-29T08:08:45.271Z,46.27
2019-05-29T08:13:50.014Z,46.13
2019-05-29T08:18:53.831Z,46.60
2019-05-29T08:23:57.386Z,46.17
2019-05-29T08:29:01.085Z,45.90
2019-05-29T08:34:05.058Z,46.30
2019-05-29T08:39:08.919Z,46.30
2019-05-29T08:44:12.567Z,45.83
2019-05-29T08:49:16.190Z,46.90
2019-05-29T08:54:23.905Z,45.57
2019-05-29T08:59:25.141Z,46.17
2019-05-29T09:04:29.146Z,46.83
2019-05-29T09:09:32.970Z,45.75
2019-05-29T09:14:36.581Z,46.13
2019-05-29T09:19:40.155Z,46.37
2019-05-29T09:24:44.079Z,45.90
2019-05-29T09:29:48.118Z,46.60
2019-05-29T09:34:51.764Z,46.47
2019-05-29T09:39:55.442Z,47.10
2019-05-29T09:44:59.106Z,46.73
2019-05-29T09:50:03.156Z,46.07
2019-05-29T09:55:07.530Z,45.60
2019-05-29T10:00:11.971Z,45.80
2019-05-29T10:05:16.008Z,46.53
2019-05-29T10:10:21.430Z,46.10
2019-05-29T10:15:25.298Z,47.37
2019-05-29T10:20:30.573Z,46.87
2019-05-29T10:25:34.143Z,46.10
2019-05-29T10:30:37.906Z,46.17
2019-05-29T10:35:42.575Z,46.28
2019-05-29T10:40:56.808Z,46.43
2019-05-29T10:45:52.051Z,46.70
2019-05-29T10:50:55.871Z,46.25
2019-05-29T10:55:59.465Z,46.45
2019-05-29T11:01:03.429Z,47.24
2019-05-29T11:06:07.118Z,46.75
2019-05-29T11:11:10.671Z,46.40
2019-05-29T11:16:14.333Z,46.37
2019-05-29T11:21:18.167Z,46.67
2019-05-29T11:26:21.810Z,47.23
2019-05-29T11:31:25.626Z,46.13
2019-05-29T11:36:29.480Z,46.35
2019-05-29T11:41:33.135Z,46.40
2019-05-29T11:46:36.806Z,46.65
2019-05-29T11:51:44.080Z,46.88
2019-05-29T11:56:45.773Z,46.73
2019-05-29T12:01:50.885Z,46.45
2019-05-29T12:06:55.385Z,47.17
2019-05-29T12:12:00.345Z,46.58
2019-05-29T12:17:04.283Z,47.30
2019-05-29T12:22:07.976Z,46.75
2019-05-29T12:27:11.736Z,46.92
2019-05-29T12:32:15.495Z,46.37
2019-05-29T12:37:19.179Z,47.03
2019-05-29T12:42:22.777Z,47.45
2019-05-29T12:47:26.475Z,46.83
2019-05-29T12:52:30.127Z,46.85
2019-05-29T12:57:33.772Z,47.27
2019-05-29T13:02:37.586Z,46.98
2019-05-29T13:07:42.099Z,46.73
2019-05-29T13:12:45.887Z,47.17
2019-05-29T13:17:49.515Z,49.18
2019-05-29T13:22:53.229Z,46.30
2019-05-29T13:27:59.357Z,46.10
2019-05-29T13:33:03.631Z,46.68
2019-05-29T13:38:07.778Z,47.58
2019-05-29T13:43:15.387Z,46.20
2019-05-29T13:48:16.686Z,46.00
2019-05-29T13:53:20.270Z,46.35
2019-05-29T13:58:24.075Z,46.85
2019-05-29T14:03:27.711Z,47.38
2019-05-29T14:08:31.387Z,47.33
2019-05-29T14:13:35.014Z,46.45
2019-05-29T14:18:38.757Z,47.17
2019-05-29T14:23:42.406Z,46.28
2019-05-29T14:28:46.003Z,46.33
2019-05-29T14:33:49.638Z,46.37
2019-05-29T14:38:53.528Z,46.68
2019-05-29T14:43:57.070Z,47.15
2019-05-29T14:49:02.185Z,47.03
2019-05-29T14:54:06.854Z,46.28
2019-05-29T14:59:11.107Z,46.83
2019-05-29T15:04:14.904Z,47.35
2019-05-29T15:09:18.595Z,46.63
2019-05-29T15:14:22.283Z,46.33
2019-05-29T15:19:25.978Z,46.48
2019-05-29T15:24:29.560Z,47.23
2019-05-29T15:29:33.255Z,47.00
2019-05-29T15:34:36.920Z,46.58
2019-05-29T15:39:40.499Z,46.90
2019-05-29T15:44:44.459Z,46.18
2019-05-29T15:49:48.283Z,46.35
2019-05-29T15:54:51.856Z,46.35
2019-05-29T15:59:55.539Z,46.68
2019-05-29T16:04:59.252Z,46.92
2019-05-29T16:10:03.080Z,47.40
2019-05-29T16:15:09.106Z,46.77
2019-05-29T16:20:14.405Z,46.86
2019-05-29T16:25:19.117Z,46.58
2019-05-29T16:30:22.920Z,47.03
2019-05-29T16:35:26.490Z,46.55
2019-05-29T16:40:31.115Z,46.57
2019-05-29T16:45:34.751Z,46.08
2019-05-29T16:50:38.974Z,45.90
2019-05-29T16:55:53.437Z,45.58
2019-05-29T17:00:48.053Z,47.15
2019-05-29T17:05:51.674Z,46.55
2019-05-29T17:10:55.278Z,46.95
2019-05-29T17:15:58.883Z,46.55
2019-05-29T17:21:02.721Z,46.77
2019-05-29T17:26:10.831Z,47.08
2019-05-29T17:31:11.745Z,46.63
2019-05-29T17:36:16.756Z,47.13
2019-05-29T17:41:21.191Z,46.60
2019-05-29T17:46:25.934Z,46.42
2019-05-29T17:51:29.713Z,46.58
2019-05-29T17:56:36.550Z,47.38
2019-05-29T18:01:38.743Z,47.17
2019-05-29T18:06:42.475Z,46.53
2019-05-29T18:11:47.491Z,46.68
2019-05-29T18:16:51.489Z,46.92
2019-05-29T18:21:54.986Z,46.88
2019-05-29T18:26:59.303Z,46.80
2019-05-29T18:32:04.140Z,47.83
2019-05-29T18:37:07.885Z,49.23
2019-05-29T18:42:11.523Z,49.70
2019-05-29T18:47:15.223Z,54.42
2019-05-29T18:52:19.242Z,51.90
2019-05-29T18:57:22.976Z,49.18
2019-05-29T19:02:27.492Z,49.50
2019-05-29T19:07:31.793Z,53.65
2019-05-29T19:12:35.900Z,51.57
2019-05-29T19:17:40.238Z,59.07
2019-05-29T19:22:44.381Z,49.10
2019-05-29T19:27:48.388Z,45.83
2019-05-29T19:32:52.843Z,45.70
2019-05-29T19:37:56.552Z,44.77
2019-05-29T19:43:00.108Z,45.50
2019-05-29T19:48:03.881Z,45.07
2019-05-29T19:53:07.551Z,46.63
2019-05-29T19:58:11.338Z,47.07
2019-05-29T20:03:15.012Z,50.43
2019-05-29T20:08:18.657Z,47.00
2019-05-29T20:13:22.226Z,46.97
2019-05-29T20:18:26.026Z,48.67
2019-05-29T20:23:30.552Z,47.43
2019-05-29T20:28:34.280Z,47.20
2019-05-29T20:33:38.682Z,47.37
2019-05-29T20:38:42.270Z,46.13
2019-05-29T20:43:45.950Z,46.33
2019-05-29T20:48:49.657Z,47.10
2019-05-29T20:53:53.218Z,47.57
2019-05-29T20:58:56.890Z,48.10
2019-05-29T21:04:00.594Z,46.60
2019-05-29T21:09:06.103Z,46.67
2019-05-29T21:14:09.810Z,46.23
2019-05-29T21:19:13.470Z,45.60
2019-05-29T21:24:17.018Z,46.53
2019-05-29T21:29:20.702Z,46.23
2019-05-29T21:34:24.325Z,46.47
2019-05-29T21:39:28.034Z,45.60
2019-05-29T21:44:32.279Z,46.50
2019-05-29T21:49:37.179Z,44.67
2019-05-29T21:54:41.453Z,45.88
2019-05-29T21:59:45.932Z,45.47
2019-05-29T22:04:49.700Z,45.53
2019-05-29T22:09:54.479Z,45.27
2019-05-29T22:14:58.966Z,48.13
2019-05-29T22:20:03.268Z,53.10
2019-05-29T22:25:08.114Z,46.42
2019-05-29T22:30:12.969Z,45.35
2019-05-29T22:35:16.985Z,45.77
2019-05-29T22:40:20.639Z,45.75
2019-05-29T22:45:24.365Z,46.50
2019-05-29T22:50:28.034Z,46.43
2019-05-29T22:55:31.974Z,45.97
2019-05-29T23:00:35.668Z,45.80
2019-05-29T23:05:39.326Z,45.30
2019-05-29T23:10:43.041Z,44.70
2019-05-29T23:15:46.619Z,44.30
2019-05-29T23:20:50.277Z,44.08
2019-05-29T23:25:54.536Z,44.17
2019-05-29T23:30:58.778Z,43.80
2019-05-29T23:36:03.252Z,43.60
2019-05-29T23:41:06.938Z,44.93
2019-05-29T23:46:10.849Z,45.07
2019-05-29T23:51:14.434Z,46.03
2019-05-29T23:56:18.021Z,45.30
